GCLP Airport Information

Runway Information
Runway 03L Length 10171 ft width 148 ft
Elevation 78 ft Threshold 0 ft Heading 22
Runway 21R Length 10171 ft Width 148 ft
Elevation 33 ft Threshold 0 ft Heading 202
Runway 03R Length 10171 ft width 148 ft
Elevation 69 ft Threshold 0 ft Heading 22
Runway 21L Length 10171 ft Width 148 ft
Elevation 27 ft Threshold 0 ft Heading 202
Airport Frequencies
Type APP Name APP Frequency 120.9 MHZ
Type ATIS Name ATIS Frequency 118.6 MHZ
Type GND Name GND Frequency 121.7 MHZ
Type TWR Name TWR Frequency 118.3 MHZ
Airport Navaids
Type VOR-DME Name Gran Canaria Frequency 112900 KHZ
Type VOR-DME Name Gran Canaria Frequency 115000 KHZ
Type TACAN Name Gran Canaria Frequency 115600 KHZ
Type NDB Name Gran Canaria Frequency 365 KHZ
Airport Weather Information & NOTAM
ADDS - METARS form results

(1043 UTC 23 May 2019)
Data provider http://aviationweather.gov/metar/data/
 
METAR text: GCLP 231030Z 01028G38KT 9999 FEW030 23/14 Q1017 NOSIG
Conditions at: GCLP (LAS PALMAS/GANDO, ES) observed 1030 UTC 23 May 2019
Temperature: 23.0°C (73°F)
Dewpoint: 14.0°C (57°F) [RH = 57%]
Pressure (altimeter): 30.03 inches Hg (1017.0 mb)
Winds: from the N (10 degrees) at 32 MPH (28 knots; 14.4 m/s)
gusting to 44 MPH (38 knots; 19.5 m/s)
Visibility: 6 or more miles (10+ km)
Ceiling: at least 12,000 feet AGL
Clouds: few clouds at 3000 feet AGL
Weather: no significant weather observed at this time

METAR text: GCLP 231000Z 36027G37KT 9999 FEW030 23/13 Q1017 NOSIG
Conditions at: GCLP (LAS PALMAS/GANDO, ES) observed 1000 UTC 23 May 2019
Temperature: 23.0°C (73°F)
Dewpoint: 13.0°C (55°F) [RH = 53%]
Pressure (altimeter): 30.03 inches Hg (1017.0 mb)
Winds: from the N (360 degrees) at 31 MPH (27 knots; 13.9 m/s)
gusting to 43 MPH (37 knots; 19.0 m/s)
Visibility: 6 or more miles (10+ km)
Ceiling: at least 12,000 feet AGL
Clouds: few clouds at 3000 feet AGL
Weather: no significant weather observed at this time

Forecast for: GCLP (LAS PALMAS/GANDO, ES)
Text: TAF GCLP 230800Z 2309/2409 36026KT 9999 SCT030 TX24/2314Z TN19/2406Z
Forecast period: 0900 UTC 23 May 2019 to 0900 UTC 24 May 2019
Forecast type: FROM: standard forecast or significant change
Winds: from the N (360 degrees) at 30 MPH (26 knots; 13.4 m/s)
Visibility: 6 or more miles 10+ km)
Ceiling: at least 12,000 feet AGL
Clouds: scattered clouds at 3000 feet AGL
Weather: no significant weather forecast for this period
Text: TEMPO 2309/2409 36027G37KT
Forecast period: 0900 UTC 23 May 2019 to 0900 UTC 24 May 2019
Forecast type: TEMPORARY: The following changes expected for less than half the time period
Winds: from the N (360 degrees) at 31 MPH (27 knots; 13.9 m/s)
gusting to 43 MPH (37 knots; 19.0 m/s)
Visibility: missing
Ceiling: unknown
Clouds: missing
Weather: no significant weather forecast for this period